sensor_id;sensor_type;location;lat;lon;timestamp;P1;durP1;ratioP1;P2;durP2;ratioP2
10246;SDS011;5168;47.854;7.944;2023-04-25T00:01:10;4.57;;;3.70;;
10246;SDS011;5168;47.854;7.944;2023-04-25T00:03:38;6.50;;;3.63;;
10246;SDS011;5168;47.854;7.944;2023-04-25T00:06:04;6.33;;;3.50;;
10246;SDS011;5168;47.854;7.944;2023-04-25T00:08:31;7.60;;;4.33;;
10246;SDS011;5168;47.854;7.944;2023-04-25T00:10:57;4.40;;;4.00;;
10246;SDS011;5168;47.854;7.944;2023-04-25T00:13:23;7.40;;;4.30;;
10246;SDS011;5168;47.854;7.944;2023-04-25T00:15:50;6.50;;;4.43;;
10246;SDS011;5168;47.854;7.944;2023-04-25T00:18:16;6.43;;;4.03;;
10246;SDS011;5168;47.854;7.944;2023-04-25T00:20:42;6.83;;;3.97;;
10246;SDS011;5168;47.854;7.944;2023-04-25T00:23:11;5.10;;;3.90;;
10246;SDS011;5168;47.854;7.944;2023-04-25T00:25:37;5.97;;;3.90;;
10246;SDS011;5168;47.854;7.944;2023-04-25T00:28:03;5.87;;;4.10;;
10246;SDS011;5168;47.854;7.944;2023-04-25T00:30:29;4.47;;;3.90;;
10246;SDS011;5168;47.854;7.944;2023-04-25T00:32:55;5.67;;;3.73;;
10246;SDS011;5168;47.854;7.944;2023-04-25T00:35:21;6.57;;;4.37;;
10246;SDS011;5168;47.854;7.944;2023-04-25T00:37:47;4.90;;;3.67;;
10246;SDS011;5168;47.854;7.944;2023-04-25T00:40:12;4.13;;;3.70;;
10246;SDS011;5168;47.854;7.944;2023-04-25T00:42:38;8.20;;;3.87;;
10246;SDS011;5168;47.854;7.944;2023-04-25T00:45:04;5.50;;;3.97;;
10246;SDS011;5168;47.854;7.944;2023-04-25T00:47:32;4.97;;;3.87;;
10246;SDS011;5168;47.854;7.944;2023-04-25T00:49:58;6.37;;;3.73;;
10246;SDS011;5168;47.854;7.944;2023-04-25T00:52:24;5.00;;;3.50;;
10246;SDS011;5168;47.854;7.944;2023-04-25T00:54:50;5.40;;;3.60;;
10246;SDS011;5168;47.854;7.944;2023-04-25T00:57:16;5.47;;;4.10;;
10246;SDS011;5168;47.854;7.944;2023-04-25T00:59:42;4.20;;;3.53;;
10246;SDS011;5168;47.854;7.944;2023-04-25T01:02:10;5.30;;;4.10;;
10246;SDS011;5168;47.854;7.944;2023-04-25T01:04:36;7.50;;;3.80;;
10246;SDS011;5168;47.854;7.944;2023-04-25T01:07:02;3.87;;;3.53;;
10246;SDS011;5168;47.854;7.944;2023-04-25T01:09:27;5.53;;;3.23;;
10246;SDS011;5168;47.854;7.944;2023-04-25T01:11:56;5.73;;;4.20;;
10246;SDS011;5168;47.854;7.944;2023-04-25T01:14:22;9.17;;;4.07;;
10246;SDS011;5168;47.854;7.944;2023-04-25T01:16:48;4.70;;;3.73;;
10246;SDS011;5168;47.854;7.944;2023-04-25T01:19:14;5.73;;;4.23;;
10246;SDS011;5168;47.854;7.944;2023-04-25T01:21:41;3.50;;;3.20;;
10246;SDS011;5168;47.854;7.944;2023-04-25T01:24:07;6.07;;;3.27;;
10246;SDS011;5168;47.854;7.944;2023-04-25T01:26:33;4.40;;;3.77;;
10246;SDS011;5168;47.854;7.944;2023-04-25T01:29:00;10.30;;;5.00;;
10246;SDS011;5168;47.854;7.944;2023-04-25T01:31:26;4.93;;;3.87;;
10246;SDS011;5168;47.854;7.944;2023-04-25T01:33:53;4.17;;;3.73;;
10246;SDS011;5168;47.854;7.944;2023-04-25T01:36:18;5.50;;;3.40;;
10246;SDS011;5168;47.854;7.944;2023-04-25T01:38:46;5.37;;;3.70;;
10246;SDS011;5168;47.854;7.944;2023-04-25T01:41:12;6.27;;;3.90;;
10246;SDS011;5168;47.854;7.944;2023-04-25T01:43:38;6.67;;;4.03;;
10246;SDS011;5168;47.854;7.944;2023-04-25T01:46:04;5.13;;;3.53;;
10246;SDS011;5168;47.854;7.944;2023-04-25T01:48:30;4.40;;;3.60;;
10246;SDS011;5168;47.854;7.944;2023-04-25T01:50:56;4.00;;;3.27;;
10246;SDS011;5168;47.854;7.944;2023-04-25T01:53:22;5.60;;;3.63;;
10246;SDS011;5168;47.854;7.944;2023-04-25T01:55:49;3.70;;;3.40;;
10246;SDS011;5168;47.854;7.944;2023-04-25T01:58:14;5.23;;;3.37;;
10246;SDS011;5168;47.854;7.944;2023-04-25T02:00:40;4.53;;;3.83;;
10246;SDS011;5168;47.854;7.944;2023-04-25T02:03:06;7.60;;;3.63;;
10246;SDS011;5168;47.854;7.944;2023-04-25T02:05:38;5.13;;;4.00;;
10246;SDS011;5168;47.854;7.944;2023-04-25T02:08:07;4.63;;;3.63;;
10246;SDS011;5168;47.854;7.944;2023-04-25T02:10:34;3.90;;;3.17;;
10246;SDS011;5168;47.854;7.944;2023-04-25T02:13:00;3.90;;;3.13;;
10246;SDS011;5168;47.854;7.944;2023-04-25T02:15:26;4.23;;;3.27;;
10246;SDS011;5168;47.854;7.944;2023-04-25T02:17:52;4.17;;;3.77;;
10246;SDS011;5168;47.854;7.944;2023-04-25T02:20:20;5.10;;;3.73;;
10246;SDS011;5168;47.854;7.944;2023-04-25T02:22:46;4.00;;;3.33;;
10246;SDS011;5168;47.854;7.944;2023-04-25T02:25:12;3.27;;;3.07;;
10246;SDS011;5168;47.854;7.944;2023-04-25T02:27:38;3.60;;;3.30;;
10246;SDS011;5168;47.854;7.944;2023-04-25T02:30:05;3.73;;;3.43;;
10246;SDS011;5168;47.854;7.944;2023-04-25T02:32:31;3.50;;;3.20;;
10246;SDS011;5168;47.854;7.944;2023-04-25T02:34:59;6.23;;;3.43;;
10246;SDS011;5168;47.854;7.944;2023-04-25T02:37:28;4.67;;;3.33;;
10246;SDS011;5168;47.854;7.944;2023-04-25T02:39:54;3.60;;;3.30;;
10246;SDS011;5168;47.854;7.944;2023-04-25T02:42:20;4.87;;;3.60;;
10246;SDS011;5168;47.854;7.944;2023-04-25T02:44:46;3.43;;;3.13;;
10246;SDS011;5168;47.854;7.944;2023-04-25T02:47:11;4.37;;;3.20;;
10246;SDS011;5168;47.854;7.944;2023-04-25T02:49:37;3.30;;;3.00;;
10246;SDS011;5168;47.854;7.944;2023-04-25T02:52:03;4.13;;;3.20;;
10246;SDS011;5168;47.854;7.944;2023-04-25T02:54:30;3.60;;;3.30;;
10246;SDS011;5168;47.854;7.944;2023-04-25T02:56:55;4.67;;;4.20;;
10246;SDS011;5168;47.854;7.944;2023-04-25T02:59:21;5.03;;;3.10;;
10246;SDS011;5168;47.854;7.944;2023-04-25T03:01:46;4.10;;;2.97;;
10246;SDS011;5168;47.854;7.944;2023-04-25T03:04:12;4.77;;;3.77;;
10246;SDS011;5168;47.854;7.944;2023-04-25T03:06:38;3.83;;;3.43;;
10246;SDS011;5168;47.854;7.944;2023-04-25T03:09:03;3.70;;;3.37;;
10246;SDS011;5168;47.854;7.944;2023-04-25T03:11:29;3.77;;;3.40;;
10246;SDS011;5168;47.854;7.944;2023-04-25T03:13:54;4.30;;;3.60;;
10246;SDS011;5168;47.854;7.944;2023-04-25T03:16:21;4.10;;;3.67;;
10246;SDS011;5168;47.854;7.944;2023-04-25T03:18:47;3.67;;;3.37;;
10246;SDS011;5168;47.854;7.944;2023-04-25T03:21:14;4.77;;;3.53;;
10246;SDS011;5168;47.854;7.944;2023-04-25T03:23:40;3.60;;;3.30;;
10246;SDS011;5168;47.854;7.944;2023-04-25T03:26:05;3.70;;;3.40;;
10246;SDS011;5168;47.854;7.944;2023-04-25T03:28:31;4.60;;;2.80;;
10246;SDS011;5168;47.854;7.944;2023-04-25T03:30:57;2.90;;;2.70;;
10246;SDS011;5168;47.854;7.944;2023-04-25T03:33:23;3.17;;;2.97;;
10246;SDS011;5168;47.854;7.944;2023-04-25T03:35:49;4.40;;;3.37;;
10246;SDS011;5168;47.854;7.944;2023-04-25T03:38:15;4.10;;;3.03;;
10246;SDS011;5168;47.854;7.944;2023-04-25T03:40:40;3.70;;;3.03;;
10246;SDS011;5168;47.854;7.944;2023-04-25T03:43:06;4.07;;;3.67;;
10246;SDS011;5168;47.854;7.944;2023-04-25T03:45:32;3.93;;;3.27;;
10246;SDS011;5168;47.854;7.944;2023-04-25T03:47:58;3.40;;;3.07;;
10246;SDS011;5168;47.854;7.944;2023-04-25T03:50:24;6.40;;;3.43;;
10246;SDS011;5168;47.854;7.944;2023-04-25T03:52:49;3.70;;;3.10;;
10246;SDS011;5168;47.854;7.944;2023-04-25T03:55:15;3.43;;;2.90;;
10246;SDS011;5168;47.854;7.944;2023-04-25T03:57:41;3.87;;;3.47;;
10246;SDS011;5168;47.854;7.944;2023-04-25T04:00:07;3.83;;;3.33;;
10246;SDS011;5168;47.854;7.944;2023-04-25T04:02:33;3.60;;;3.30;;
10246;SDS011;5168;47.854;7.944;2023-04-25T04:04:59;4.43;;;3.20;;
10246;SDS011;5168;47.854;7.944;2023-04-25T04:07:25;5.33;;;3.80;;
10246;SDS011;5168;47.854;7.944;2023-04-25T04:09:51;4.20;;;3.17;;
10246;SDS011;5168;47.854;7.944;2023-04-25T04:12:17;5.90;;;3.40;;
10246;SDS011;5168;47.854;7.944;2023-04-25T04:14:42;9.80;;;4.00;;
10246;SDS011;5168;47.854;7.944;2023-04-25T04:17:08;6.37;;;3.77;;
10246;SDS011;5168;47.854;7.944;2023-04-25T04:19:34;3.57;;;3.27;;
10246;SDS011;5168;47.854;7.944;2023-04-25T04:22:00;3.57;;;3.27;;
10246;SDS011;5168;47.854;7.944;2023-04-25T04:24:26;4.90;;;3.53;;
10246;SDS011;5168;47.854;7.944;2023-04-25T04:26:52;3.97;;;3.37;;
10246;SDS011;5168;47.854;7.944;2023-04-25T04:29:17;3.67;;;3.37;;
10246;SDS011;5168;47.854;7.944;2023-04-25T04:31:49;5.27;;;3.20;;
10246;SDS011;5168;47.854;7.944;2023-04-25T04:34:18;3.23;;;2.97;;
10246;SDS011;5168;47.854;7.944;2023-04-25T04:36:47;7.27;;;3.53;;
10246;SDS011;5168;47.854;7.944;2023-04-25T04:39:13;5.27;;;3.40;;
10246;SDS011;5168;47.854;7.944;2023-04-25T04:41:39;4.30;;;3.47;;
10246;SDS011;5168;47.854;7.944;2023-04-25T04:44:05;4.10;;;3.70;;
10246;SDS011;5168;47.854;7.944;2023-04-25T04:46:32;4.13;;;3.60;;
10246;SDS011;5168;47.854;7.944;2023-04-25T04:49:03;3.30;;;2.90;;
10246;SDS011;5168;47.854;7.944;2023-04-25T04:51:31;5.47;;;3.90;;
10246;SDS011;5168;47.854;7.944;2023-04-25T04:53:58;6.20;;;3.57;;
10246;SDS011;5168;47.854;7.944;2023-04-25T04:56:27;3.53;;;3.23;;
10246;SDS011;5168;47.854;7.944;2023-04-25T04:58:54;4.37;;;3.97;;
10246;SDS011;5168;47.854;7.944;2023-04-25T05:01:20;3.97;;;3.57;;
10246;SDS011;5168;47.854;7.944;2023-04-25T05:03:46;7.03;;;3.77;;
10246;SDS011;5168;47.854;7.944;2023-04-25T05:06:12;4.30;;;3.77;;
10246;SDS011;5168;47.854;7.944;2023-04-25T05:08:38;5.97;;;3.30;;
10246;SDS011;5168;47.854;7.944;2023-04-25T05:11:04;4.37;;;3.53;;
10246;SDS011;5168;47.854;7.944;2023-04-25T05:13:30;6.03;;;4.07;;
10246;SDS011;5168;47.854;7.944;2023-04-25T05:15:56;5.33;;;4.13;;
10246;SDS011;5168;47.854;7.944;2023-04-25T05:18:22;6.53;;;3.90;;
10246;SDS011;5168;47.854;7.944;2023-04-25T05:20:48;7.43;;;4.07;;
10246;SDS011;5168;47.854;7.944;2023-04-25T05:23:13;6.97;;;4.20;;
10246;SDS011;5168;47.854;7.944;2023-04-25T05:25:39;6.53;;;3.93;;
10246;SDS011;5168;47.854;7.944;2023-04-25T05:28:05;8.57;;;4.57;;
10246;SDS011;5168;47.854;7.944;2023-04-25T05:30:30;8.73;;;5.07;;
10246;SDS011;5168;47.854;7.944;2023-04-25T05:32:56;6.17;;;4.73;;
10246;SDS011;5168;47.854;7.944;2023-04-25T05:35:22;6.17;;;4.10;;
10246;SDS011;5168;47.854;7.944;2023-04-25T05:37:47;5.13;;;3.60;;
10246;SDS011;5168;47.854;7.944;2023-04-25T05:40:13;3.87;;;3.40;;
10246;SDS011;5168;47.854;7.944;2023-04-25T05:42:39;2.97;;;2.77;;
10246;SDS011;5168;47.854;7.944;2023-04-25T05:45:05;3.07;;;2.87;;
10246;SDS011;5168;47.854;7.944;2023-04-25T05:47:30;3.40;;;3.10;;
10246;SDS011;5168;47.854;7.944;2023-04-25T05:49:56;4.30;;;2.77;;
10246;SDS011;5168;47.854;7.944;2023-04-25T05:52:22;4.00;;;2.67;;
10246;SDS011;5168;47.854;7.944;2023-04-25T05:54:48;3.00;;;2.80;;
10246;SDS011;5168;47.854;7.944;2023-04-25T05:57:21;2.90;;;2.70;;
10246;SDS011;5168;47.854;7.944;2023-04-25T05:59:48;2.87;;;2.60;;
10246;SDS011;5168;47.854;7.944;2023-04-25T06:02:13;3.20;;;2.90;;
10246;SDS011;5168;47.854;7.944;2023-04-25T06:04:39;5.17;;;3.90;;
10246;SDS011;5168;47.854;7.944;2023-04-25T06:07:05;16.50;;;3.27;;
10246;SDS011;5168;47.854;7.944;2023-04-25T06:09:31;2.23;;;2.10;;
10246;SDS011;5168;47.854;7.944;2023-04-25T06:11:56;5.10;;;1.77;;
10246;SDS011;5168;47.854;7.944;2023-04-25T06:14:22;1.97;;;1.87;;
10246;SDS011;5168;47.854;7.944;2023-04-25T06:16:48;1.73;;;1.63;;
10246;SDS011;5168;47.854;7.944;2023-04-25T06:19:14;15.63;;;2.30;;
10246;SDS011;5168;47.854;7.944;2023-04-25T06:21:39;2.20;;;2.10;;
10246;SDS011;5168;47.854;7.944;2023-04-25T06:24:06;2.90;;;2.37;;
10246;SDS011;5168;47.854;7.944;2023-04-25T06:26:31;3.20;;;2.70;;
10246;SDS011;5168;47.854;7.944;2023-04-25T06:28:57;3.03;;;2.70;;
10246;SDS011;5168;47.854;7.944;2023-04-25T06:31:23;2.67;;;2.40;;
10246;SDS011;5168;47.854;7.944;2023-04-25T06:33:50;2.27;;;2.17;;
10246;SDS011;5168;47.854;7.944;2023-04-25T06:36:19;2.00;;;1.90;;
10246;SDS011;5168;47.854;7.944;2023-04-25T06:38:49;7.57;;;1.90;;
10246;SDS011;5168;47.854;7.944;2023-04-25T06:41:18;2.07;;;1.97;;
10246;SDS011;5168;47.854;7.944;2023-04-25T06:43:43;2.10;;;2.00;;
10246;SDS011;5168;47.854;7.944;2023-04-25T06:46:09;2.23;;;2.13;;
10246;SDS011;5168;47.854;7.944;2023-04-25T06:48:35;1.90;;;1.80;;
10246;SDS011;5168;47.854;7.944;2023-04-25T06:51:01;2.00;;;1.90;;
10246;SDS011;5168;47.854;7.944;2023-04-25T06:53:27;2.00;;;1.80;;
10246;SDS011;5168;47.854;7.944;2023-04-25T06:55:53;5.00;;;2.00;;
10246;SDS011;5168;47.854;7.944;2023-04-25T06:58:19;2.07;;;1.97;;
10246;SDS011;5168;47.854;7.944;2023-04-25T07:00:45;2.20;;;2.00;;
10246;SDS011;5168;47.854;7.944;2023-04-25T07:03:10;27.73;;;2.87;;
10246;SDS011;5168;47.854;7.944;2023-04-25T07:05:37;2.60;;;2.40;;
10246;SDS011;5168;47.854;7.944;2023-04-25T07:08:02;2.37;;;2.20;;
10246;SDS011;5168;47.854;7.944;2023-04-25T07:10:28;2.77;;;2.57;;
10246;SDS011;5168;47.854;7.944;2023-04-25T07:12:54;2.53;;;2.33;;
10246;SDS011;5168;47.854;7.944;2023-04-25T07:15:20;2.60;;;2.40;;
10246;SDS011;5168;47.854;7.944;2023-04-25T07:17:46;1.80;;;1.70;;
10246;SDS011;5168;47.854;7.944;2023-04-25T07:20:12;3.17;;;1.87;;
10246;SDS011;5168;47.854;7.944;2023-04-25T07:22:38;1.63;;;1.53;;
10246;SDS011;5168;47.854;7.944;2023-04-25T07:25:04;1.80;;;1.70;;
10246;SDS011;5168;47.854;7.944;2023-04-25T07:27:30;1.80;;;1.70;;
10246;SDS011;5168;47.854;7.944;2023-04-25T07:29:56;2.20;;;2.10;;
10246;SDS011;5168;47.854;7.944;2023-04-25T07:32:22;2.10;;;2.00;;
10246;SDS011;5168;47.854;7.944;2023-04-25T07:34:47;2.20;;;2.00;;
10246;SDS011;5168;47.854;7.944;2023-04-25T07:37:13;2.50;;;2.30;;
10246;SDS011;5168;47.854;7.944;2023-04-25T07:39:39;2.00;;;1.90;;
10246;SDS011;5168;47.854;7.944;2023-04-25T07:42:05;2.47;;;2.27;;
10246;SDS011;5168;47.854;7.944;2023-04-25T07:44:33;1.80;;;1.70;;
10246;SDS011;5168;47.854;7.944;2023-04-25T07:47:06;1.90;;;1.80;;
10246;SDS011;5168;47.854;7.944;2023-04-25T07:49:32;1.73;;;1.63;;
10246;SDS011;5168;47.854;7.944;2023-04-25T07:51:59;2.10;;;2.00;;
10246;SDS011;5168;47.854;7.944;2023-04-25T07:54:25;2.30;;;2.10;;
10246;SDS011;5168;47.854;7.944;2023-04-25T07:56:51;1.90;;;1.80;;
10246;SDS011;5168;47.854;7.944;2023-04-25T07:59:16;2.00;;;1.90;;
10246;SDS011;5168;47.854;7.944;2023-04-25T08:01:42;1.90;;;1.80;;
10246;SDS011;5168;47.854;7.944;2023-04-25T08:04:08;1.97;;;1.87;;
10246;SDS011;5168;47.854;7.944;2023-04-25T08:06:34;1.70;;;1.60;;
10246;SDS011;5168;47.854;7.944;2023-04-25T08:08:59;1.80;;;1.70;;
10246;SDS011;5168;47.854;7.944;2023-04-25T08:11:25;1.90;;;1.80;;
10246;SDS011;5168;47.854;7.944;2023-04-25T08:13:51;1.87;;;1.77;;
10246;SDS011;5168;47.854;7.944;2023-04-25T08:16:17;1.90;;;1.80;;
10246;SDS011;5168;47.854;7.944;2023-04-25T08:18:42;2.47;;;1.80;;
10246;SDS011;5168;47.854;7.944;2023-04-25T08:21:08;1.80;;;1.70;;
10246;SDS011;5168;47.854;7.944;2023-04-25T08:23:36;1.93;;;1.83;;
10246;SDS011;5168;47.854;7.944;2023-04-25T08:26:02;2.67;;;2.03;;
10246;SDS011;5168;47.854;7.944;2023-04-25T08:28:27;2.37;;;2.20;;
10246;SDS011;5168;47.854;7.944;2023-04-25T08:30:53;1.80;;;1.70;;
10246;SDS011;5168;47.854;7.944;2023-04-25T08:33:19;2.30;;;2.10;;
10246;SDS011;5168;47.854;7.944;2023-04-25T08:35:45;2.00;;;1.90;;
10246;SDS011;5168;47.854;7.944;2023-04-25T08:38:11;4.10;;;3.00;;
10246;SDS011;5168;47.854;7.944;2023-04-25T08:40:37;2.47;;;2.27;;
10246;SDS011;5168;47.854;7.944;2023-04-25T08:43:04;2.83;;;2.47;;
10246;SDS011;5168;47.854;7.944;2023-04-25T08:45:36;2.90;;;2.50;;
10246;SDS011;5168;47.854;7.944;2023-04-25T08:48:07;1.70;;;1.60;;
10246;SDS011;5168;47.854;7.944;2023-04-25T08:50:40;3.10;;;2.07;;
10246;SDS011;5168;47.854;7.944;2023-04-25T08:53:17;2.10;;;1.90;;
10246;SDS011;5168;47.854;7.944;2023-04-25T08:55:53;2.07;;;1.90;;
10246;SDS011;5168;47.854;7.944;2023-04-25T08:58:21;2.43;;;2.23;;
10246;SDS011;5168;47.854;7.944;2023-04-25T09:00:47;2.13;;;1.93;;
10246;SDS011;5168;47.854;7.944;2023-04-25T09:03:14;1.93;;;1.83;;
10246;SDS011;5168;47.854;7.944;2023-04-25T09:05:40;2.20;;;2.10;;
10246;SDS011;5168;47.854;7.944;2023-04-25T09:08:07;2.40;;;2.20;;
10246;SDS011;5168;47.854;7.944;2023-04-25T09:10:32;2.17;;;1.97;;
10246;SDS011;5168;47.854;7.944;2023-04-25T09:13:12;2.80;;;2.03;;
10246;SDS011;5168;47.854;7.944;2023-04-25T09:15:49;2.60;;;2.20;;
10246;SDS011;5168;47.854;7.944;2023-04-25T09:18:26;2.20;;;2.10;;
10246;SDS011;5168;47.854;7.944;2023-04-25T09:20:53;3.80;;;2.30;;
10246;SDS011;5168;47.854;7.944;2023-04-25T09:23:20;2.60;;;2.07;;
10246;SDS011;5168;47.854;7.944;2023-04-25T09:25:47;2.20;;;2.00;;
10246;SDS011;5168;47.854;7.944;2023-04-25T09:28:13;2.50;;;2.30;;
10246;SDS011;5168;47.854;7.944;2023-04-25T09:30:39;2.13;;;2.03;;
10246;SDS011;5168;47.854;7.944;2023-04-25T09:33:05;2.80;;;1.90;;
10246;SDS011;5168;47.854;7.944;2023-04-25T09:35:37;2.17;;;2.03;;
10246;SDS011;5168;47.854;7.944;2023-04-25T09:38:14;2.00;;;1.80;;
10246;SDS011;5168;47.854;7.944;2023-04-25T09:40:43;2.10;;;2.00;;
10246;SDS011;5168;47.854;7.944;2023-04-25T09:43:18;3.23;;;1.90;;
10246;SDS011;5168;47.854;7.944;2023-04-25T09:45:47;2.20;;;1.90;;
10246;SDS011;5168;47.854;7.944;2023-04-25T09:48:20;2.00;;;1.90;;
10246;SDS011;5168;47.854;7.944;2023-04-25T09:53:38;2.67;;;2.47;;
10246;SDS011;5168;47.854;7.944;2023-04-25T09:56:05;3.83;;;3.03;;
10246;SDS011;5168;47.854;7.944;2023-04-25T09:58:32;2.57;;;2.37;;
10246;SDS011;5168;47.854;7.944;2023-04-25T10:01:01;3.83;;;2.43;;
10246;SDS011;5168;47.854;7.944;2023-04-25T10:03:31;2.10;;;2.00;;
10246;SDS011;5168;47.854;7.944;2023-04-25T10:06:06;2.57;;;2.43;;
10246;SDS011;5168;47.854;7.944;2023-04-25T10:08:36;2.70;;;2.50;;
10246;SDS011;5168;47.854;7.944;2023-04-25T10:11:06;2.27;;;2.17;;
10246;SDS011;5168;47.854;7.944;2023-04-25T10:13:33;2.13;;;1.97;;
10246;SDS011;5168;47.854;7.944;2023-04-25T10:16:00;2.57;;;2.37;;
10246;SDS011;5168;47.854;7.944;2023-04-25T10:18:27;2.70;;;2.50;;
10246;SDS011;5168;47.854;7.944;2023-04-25T10:20:54;2.67;;;2.47;;
10246;SDS011;5168;47.854;7.944;2023-04-25T10:23:25;2.57;;;2.37;;
10246;SDS011;5168;47.854;7.944;2023-04-25T10:25:51;2.90;;;2.70;;
10246;SDS011;5168;47.854;7.944;2023-04-25T10:28:17;2.60;;;2.40;;
10246;SDS011;5168;47.854;7.944;2023-04-25T10:31:02;2.77;;;2.57;;
10246;SDS011;5168;47.854;7.944;2023-04-25T10:33:39;2.90;;;2.70;;
10246;SDS011;5168;47.854;7.944;2023-04-25T10:36:11;2.77;;;2.50;;
10246;SDS011;5168;47.854;7.944;2023-04-25T10:38:38;2.70;;;2.50;;
10246;SDS011;5168;47.854;7.944;2023-04-25T10:41:04;3.00;;;2.70;;
10246;SDS011;5168;47.854;7.944;2023-04-25T10:43:36;3.13;;;2.90;;
10246;SDS011;5168;47.854;7.944;2023-04-25T10:46:13;2.77;;;2.57;;
10246;SDS011;5168;47.854;7.944;2023-04-25T10:48:54;2.97;;;2.70;;
10246;SDS011;5168;47.854;7.944;2023-04-25T10:56:27;3.00;;;2.80;;
10246;SDS011;5168;47.854;7.944;2023-04-25T11:01:38;3.00;;;2.70;;
10246;SDS011;5168;47.854;7.944;2023-04-25T11:04:05;3.47;;;3.17;;
10246;SDS011;5168;47.854;7.944;2023-04-25T11:06:36;3.00;;;2.70;;
10246;SDS011;5168;47.854;7.944;2023-04-25T11:09:20;3.10;;;2.90;;
10246;SDS011;5168;47.854;7.944;2023-04-25T11:11:58;3.07;;;2.50;;
10246;SDS011;5168;47.854;7.944;2023-04-25T11:14:25;2.60;;;2.40;;
10246;SDS011;5168;47.854;7.944;2023-04-25T11:16:55;2.37;;;2.17;;
10246;SDS011;5168;47.854;7.944;2023-04-25T11:19:22;2.70;;;2.50;;
10246;SDS011;5168;47.854;7.944;2023-04-25T11:21:48;2.83;;;2.53;;
10246;SDS011;5168;47.854;7.944;2023-04-25T11:24:14;2.67;;;2.37;;
10246;SDS011;5168;47.854;7.944;2023-04-25T11:26:42;2.40;;;2.20;;
10246;SDS011;5168;47.854;7.944;2023-04-25T11:29:08;2.40;;;2.20;;
10246;SDS011;5168;47.854;7.944;2023-04-25T11:31:34;2.10;;;2.00;;
10246;SDS011;5168;47.854;7.944;2023-04-25T11:34:00;2.33;;;2.20;;
10246;SDS011;5168;47.854;7.944;2023-04-25T11:36:26;3.10;;;2.30;;
10246;SDS011;5168;47.854;7.944;2023-04-25T11:38:53;2.67;;;2.10;;
10246;SDS011;5168;47.854;7.944;2023-04-25T11:41:19;2.57;;;2.00;;
10246;SDS011;5168;47.854;7.944;2023-04-25T11:43:47;2.23;;;2.13;;
10246;SDS011;5168;47.854;7.944;2023-04-25T11:46:13;2.70;;;2.50;;
10246;SDS011;5168;47.854;7.944;2023-04-25T11:48:40;4.03;;;2.70;;
10246;SDS011;5168;47.854;7.944;2023-04-25T11:51:06;2.40;;;2.20;;
10246;SDS011;5168;47.854;7.944;2023-04-25T11:53:32;3.00;;;2.63;;
10246;SDS011;5168;47.854;7.944;2023-04-25T11:55:58;2.37;;;2.13;;
10246;SDS011;5168;47.854;7.944;2023-04-25T11:58:25;2.80;;;2.60;;
10246;SDS011;5168;47.854;7.944;2023-04-25T12:00:51;4.43;;;2.57;;
10246;SDS011;5168;47.854;7.944;2023-04-25T12:03:17;3.83;;;2.70;;
10246;SDS011;5168;47.854;7.944;2023-04-25T12:05:44;2.47;;;2.23;;
10246;SDS011;5168;47.854;7.944;2023-04-25T12:08:11;2.57;;;2.37;;
10246;SDS011;5168;47.854;7.944;2023-04-25T12:10:38;2.37;;;2.23;;
10246;SDS011;5168;47.854;7.944;2023-04-25T12:13:18;2.50;;;2.30;;
10246;SDS011;5168;47.854;7.944;2023-04-25T12:15:45;2.80;;;2.60;;
10246;SDS011;5168;47.854;7.944;2023-04-25T12:18:10;2.67;;;2.43;;
10246;SDS011;5168;47.854;7.944;2023-04-25T12:20:36;2.93;;;2.60;;
10246;SDS011;5168;47.854;7.944;2023-04-25T12:23:01;2.70;;;2.50;;
10246;SDS011;5168;47.854;7.944;2023-04-25T12:33:37;2.57;;;2.37;;
10246;SDS011;5168;47.854;7.944;2023-04-25T12:36:04;2.40;;;2.20;;
10246;SDS011;5168;47.854;7.944;2023-04-25T12:38:40;1.97;;;1.70;;
10246;SDS011;5168;47.854;7.944;2023-04-25T12:41:07;3.47;;;2.50;;
10246;SDS011;5168;47.854;7.944;2023-04-25T12:43:33;2.43;;;2.23;;
10246;SDS011;5168;47.854;7.944;2023-04-25T12:45:58;2.97;;;2.40;;
10246;SDS011;5168;47.854;7.944;2023-04-25T12:48:24;2.77;;;2.57;;
10246;SDS011;5168;47.854;7.944;2023-04-25T12:50:50;3.43;;;2.40;;
10246;SDS011;5168;47.854;7.944;2023-04-25T12:53:17;2.40;;;2.20;;
10246;SDS011;5168;47.854;7.944;2023-04-25T12:55:43;3.03;;;2.53;;
10246;SDS011;5168;47.854;7.944;2023-04-25T12:58:11;2.83;;;2.43;;
10246;SDS011;5168;47.854;7.944;2023-04-25T13:00:41;3.47;;;2.63;;
10246;SDS011;5168;47.854;7.944;2023-04-25T13:03:07;3.00;;;2.40;;
10246;SDS011;5168;47.854;7.944;2023-04-25T13:05:33;2.83;;;2.63;;
10246;SDS011;5168;47.854;7.944;2023-04-25T13:07:58;2.77;;;2.30;;
10246;SDS011;5168;47.854;7.944;2023-04-25T13:10:24;2.97;;;2.77;;
10246;SDS011;5168;47.854;7.944;2023-04-25T13:12:50;2.50;;;2.33;;
10246;SDS011;5168;47.854;7.944;2023-04-25T13:15:15;2.93;;;2.73;;
10246;SDS011;5168;47.854;7.944;2023-04-25T13:17:41;2.83;;;2.60;;
10246;SDS011;5168;47.854;7.944;2023-04-25T13:20:07;3.40;;;3.00;;
10246;SDS011;5168;47.854;7.944;2023-04-25T13:22:38;3.10;;;2.90;;
10246;SDS011;5168;47.854;7.944;2023-04-25T13:25:04;2.60;;;2.43;;
10246;SDS011;5168;47.854;7.944;2023-04-25T13:27:31;2.90;;;2.60;;
10246;SDS011;5168;47.854;7.944;2023-04-25T13:29:59;2.97;;;2.67;;
10246;SDS011;5168;47.854;7.944;2023-04-25T13:32:25;2.80;;;2.47;;
10246;SDS011;5168;47.854;7.944;2023-04-25T13:34:51;2.70;;;2.50;;
10246;SDS011;5168;47.854;7.944;2023-04-25T13:37:17;2.93;;;2.50;;
10246;SDS011;5168;47.854;7.944;2023-04-25T13:39:43;2.70;;;2.50;;
10246;SDS011;5168;47.854;7.944;2023-04-25T13:42:08;2.87;;;2.63;;
10246;SDS011;5168;47.854;7.944;2023-04-25T13:44:34;2.80;;;2.60;;
10246;SDS011;5168;47.854;7.944;2023-04-25T13:47:00;4.73;;;2.60;;
10246;SDS011;5168;47.854;7.944;2023-04-25T13:49:26;3.17;;;2.57;;
10246;SDS011;5168;47.854;7.944;2023-04-25T13:51:52;2.40;;;2.23;;
10246;SDS011;5168;47.854;7.944;2023-04-25T13:54:17;4.40;;;2.30;;
10246;SDS011;5168;47.854;7.944;2023-04-25T13:56:43;3.23;;;2.60;;
10246;SDS011;5168;47.854;7.944;2023-04-25T13:59:09;4.00;;;3.00;;
10246;SDS011;5168;47.854;7.944;2023-04-25T14:01:36;3.43;;;2.50;;
10246;SDS011;5168;47.854;7.944;2023-04-25T14:04:02;2.77;;;2.57;;
10246;SDS011;5168;47.854;7.944;2023-04-25T14:06:31;2.10;;;2.00;;
10246;SDS011;5168;47.854;7.944;2023-04-25T14:08:57;3.13;;;2.10;;
10246;SDS011;5168;47.854;7.944;2023-04-25T14:11:22;3.37;;;2.30;;
10246;SDS011;5168;47.854;7.944;2023-04-25T14:13:48;2.80;;;2.20;;
10246;SDS011;5168;47.854;7.944;2023-04-25T14:16:14;2.50;;;2.30;;
10246;SDS011;5168;47.854;7.944;2023-04-25T14:18:40;2.53;;;2.33;;
10246;SDS011;5168;47.854;7.944;2023-04-25T14:21:06;5.57;;;2.27;;
10246;SDS011;5168;47.854;7.944;2023-04-25T14:23:31;2.30;;;2.10;;
10246;SDS011;5168;47.854;7.944;2023-04-25T14:25:57;2.40;;;2.20;;
10246;SDS011;5168;47.854;7.944;2023-04-25T14:28:23;2.17;;;2.07;;
10246;SDS011;5168;47.854;7.944;2023-04-25T14:30:48;2.10;;;2.00;;
10246;SDS011;5168;47.854;7.944;2023-04-25T14:33:14;2.40;;;2.20;;
10246;SDS011;5168;47.854;7.944;2023-04-25T14:35:39;3.30;;;2.13;;
10246;SDS011;5168;47.854;7.944;2023-04-25T14:38:05;2.50;;;2.30;;
10246;SDS011;5168;47.854;7.944;2023-04-25T14:40:31;4.97;;;3.27;;
10246;SDS011;5168;47.854;7.944;2023-04-25T14:42:56;2.60;;;2.40;;
10246;SDS011;5168;47.854;7.944;2023-04-25T14:45:22;2.60;;;2.40;;
10246;SDS011;5168;47.854;7.944;2023-04-25T14:47:48;2.70;;;2.50;;
10246;SDS011;5168;47.854;7.944;2023-04-25T14:50:13;2.83;;;2.63;;
10246;SDS011;5168;47.854;7.944;2023-04-25T14:52:39;2.60;;;2.40;;
10246;SDS011;5168;47.854;7.944;2023-04-25T14:55:05;3.13;;;2.80;;
10246;SDS011;5168;47.854;7.944;2023-04-25T14:57:32;2.40;;;2.20;;
10246;SDS011;5168;47.854;7.944;2023-04-25T14:59:58;3.30;;;2.03;;
10246;SDS011;5168;47.854;7.944;2023-04-25T15:02:24;2.40;;;2.20;;
10246;SDS011;5168;47.854;7.944;2023-04-25T15:04:50;2.60;;;2.23;;
10246;SDS011;5168;47.854;7.944;2023-04-25T15:07:16;2.67;;;2.47;;
10246;SDS011;5168;47.854;7.944;2023-04-25T15:09:42;2.30;;;2.10;;
10246;SDS011;5168;47.854;7.944;2023-04-25T15:12:08;2.57;;;2.37;;
10246;SDS011;5168;47.854;7.944;2023-04-25T15:14:34;2.57;;;2.37;;
10246;SDS011;5168;47.854;7.944;2023-04-25T15:17:00;2.90;;;2.40;;